Time;durP1;ratioP1;P1;durP2;ratioP2;P2;SDS_P1;SDS_P2;PMS_P1;PMS_P2;Temp;Humidity;BMP_temperature;BMP_pressure;BME280_temperature;BME280_humidity;BME280_pressure;Samples;Min_cycle;Max_cycle;Signal;HPM_P1;HPM_P2
2022/02/03 00:04:43;;;;;;;5.10;3.17;;;;;;;;;;772740;177;940401;-63
2022/02/03 00:07:06;;;;;;;7.70;4.00;;;;;;;;;;771976;180;943986;-66
2022/02/03 00:24:52;;;;;;;8.27;5.03;;;;;;;;;;773120;180;920113;-65
2022/02/03 00:27:18;;;;;;;6.50;3.60;;;;;;;;;;778681;178;918907;-64
2022/02/03 00:29:58;;;;;;;4.90;3.70;;;;;;;;;;771821;177;918489;-64
2022/02/03 00:35:09;;;;;;;5.57;3.87;;;;;;;;;;774492;179;919147;-64
2022/02/03 00:37:31;;;;;;;7.73;3.83;;;;;;;;;;773895;180;922350;-64
2022/02/03 00:50:04;;;;;;;10.20;4.30;;;;;;;;;;765920;181;918488;-63
2022/02/03 00:52:23;;;;;;;5.20;3.23;;;;;;;;;;764214;180;824647;-63
2022/02/03 00:54:48;;;;;;;6.97;4.18;;;;;;;;;;771663;180;919963;-63
2022/02/03 00:57:16;;;;;;;4.63;3.23;;;;;;;;;;760020;181;810292;-63
2022/02/03 00:59:45;;;;;;;7.90;3.27;;;;;;;;;;775759;181;824314;-63
2022/02/03 01:02:12;;;;;;;8.27;4.50;;;;;;;;;;771793;179;920286;-60
2022/02/03 01:04:38;;;;;;;5.90;3.70;;;;;;;;;;761822;179;929590;-63
2022/02/03 01:07:04;;;;;;;9.73;4.93;;;;;;;;;;767305;181;920280;-63
2022/02/03 01:09:32;;;;;;;13.57;4.53;;;;;;;;;;761300;184;776322;-63
2022/02/03 01:12:07;;;;;;;6.67;3.50;;;;;;;;;;756945;184;919586;-63
2022/02/03 01:14:30;;;;;;;7.90;4.33;;;;;;;;;;754396;183;918768;-61
2022/02/03 01:17:06;;;;;;;5.57;3.47;;;;;;;;;;755642;183;918018;-62
2022/02/03 01:19:46;;;;;;;5.93;3.57;;;;;;;;;;769092;178;916215;-63
2022/02/03 01:33:30;;;;;;;6.00;3.53;;;;;;;;;;765757;181;921844;-62
2022/02/03 01:34:42;;;;;;;6.87;4.30;;;;;;;;;;770825;180;919334;-63
2022/02/03 01:47:25;;;;;;;7.03;4.17;;;;;;;;;;774620;181;919123;-62
2022/02/03 01:52:09;;;;;;;6.10;4.17;;;;;;;;;;767879;180;918554;-63
2022/02/03 01:54:34;;;;;;;8.53;3.80;;;;;;;;;;774952;180;919811;-63
2022/02/03 01:57:00;;;;;;;7.20;4.20;;;;;;;;;;770254;180;920321;-62
2022/02/03 01:59:26;;;;;;;5.97;4.40;;;;;;;;;;774584;180;920449;-61
2022/02/03 02:01:52;;;;;;;4.73;3.33;;;;;;;;;;772987;181;1737619;-63
2022/02/03 02:04:33;;;;;;;6.17;3.70;;;;;;;;;;777368;180;792449;-67
2022/02/03 02:07:04;;;;;;;6.13;3.67;;;;;;;;;;776411;180;772090;-62
2022/02/03 02:09:38;;;;;;;7.23;3.93;;;;;;;;;;776465;177;921156;-63
2022/02/03 02:12:16;;;;;;;8.65;3.97;;;;;;;;;;776859;179;915414;-62
2022/02/03 02:18:10;;;;;;;4.93;3.60;;;;;;;;;;779023;179;919369;-64
2022/02/03 02:36:47;;;;;;;9.10;4.73;;;;;;;;;;771272;181;913025;-64
2022/02/03 02:40:48;;;;;;;14.03;9.93;;;;;;;;;;774230;180;918592;-62
2022/02/03 02:42:56;;;;;;;13.68;7.85;;;;;;;;;;773930;180;817013;-61
2022/02/03 02:45:22;;;;;;;15.73;8.33;;;;;;;;;;777205;179;919900;-64
2022/02/03 02:48:07;;;;;;;13.70;6.63;;;;;;;;;;772498;181;918130;-64
2022/02/03 02:50:39;;;;;;;15.67;6.77;;;;;;;;;;775222;178;918791;-63
2022/02/03 02:53:12;;;;;;;11.40;6.40;;;;;;;;;;771800;180;713787;-65
2022/02/03 02:55:50;;;;;;;9.63;6.50;;;;;;;;;;774344;179;815716;-63
2022/02/03 02:58:26;;;;;;;12.27;7.10;;;;;;;;;;764109;180;918010;-64
2022/02/03 03:29:13;;;;;;;8.37;5.50;;;;;;;;;;776133;180;919541;-64
2022/02/03 03:31:46;;;;;;;11.10;5.33;;;;;;;;;;776870;178;918945;-63
2022/02/03 03:34:07;;;;;;;12.33;6.50;;;;;;;;;;778296;177;917552;-64
2022/02/03 03:36:22;;;;;;;13.40;5.97;;;;;;;;;;774485;180;935806;-63
2022/02/03 03:38:49;;;;;;;23.87;10.70;;;;;;;;;;776370;179;918046;-63
2022/02/03 03:41:16;;;;;;;22.48;11.07;;;;;;;;;;781129;177;918992;-63
2022/02/03 03:43:42;;;;;;;25.50;13.07;;;;;;;;;;774296;180;918338;-62
2022/02/03 03:46:08;;;;;;;21.30;9.82;;;;;;;;;;773145;180;946866;-63
2022/02/03 03:48:35;;;;;;;16.73;8.50;;;;;;;;;;773261;180;919311;-63
2022/02/03 03:51:01;;;;;;;17.40;7.00;;;;;;;;;;779951;179;916438;-63
2022/02/03 03:53:34;;;;;;;10.33;5.97;;;;;;;;;;776549;179;814546;-62
2022/02/03 03:56:00;;;;;;;12.77;6.82;;;;;;;;;;771643;178;916036;-62
2022/02/03 03:58:38;;;;;;;11.23;7.23;;;;;;;;;;776497;179;919378;-62
2022/02/03 04:28:38;;;;;;;13.40;5.97;;;;;;;;;;769516;180;918386;-62
2022/02/03 04:29:34;;;;;;;13.40;4.60;;;;;;;;;;772321;178;919597;-62
2022/02/03 04:32:35;;;;;;;8.10;4.10;;;;;;;;;;774109;180;917614;-59
2022/02/03 04:42:50;;;;;;;8.23;4.40;;;;;;;;;;777679;180;918355;-61
2022/02/03 04:45:34;;;;;;;12.17;4.00;;;;;;;;;;775030;179;919711;-61
2022/02/03 04:53:36;;;;;;;9.40;5.67;;;;;;;;;;771682;180;1021468;-61
2022/02/03 04:59:01;;;;;;;8.47;4.97;;;;;;;;;;770874;181;904851;-62
2022/02/03 05:01:16;;;;;;;11.37;5.10;;;;;;;;;;771613;180;918396;-63
2022/02/03 05:03:51;;;;;;;11.10;5.37;;;;;;;;;;772953;180;918493;-63
2022/02/03 05:06:21;;;;;;;16.83;5.77;;;;;;;;;;761689;179;919272;-63
2022/02/03 05:09:00;;;;;;;10.63;5.10;;;;;;;;;;777479;181;919515;-63
2022/02/03 05:11:45;;;;;;;12.60;6.07;;;;;;;;;;781333;179;883913;-63
2022/02/03 05:14:34;;;;;;;11.60;7.18;;;;;;;;;;772203;180;919167;-64
2022/02/03 05:19:48;;;;;;;16.43;7.07;;;;;;;;;;779774;177;803737;-64
2022/02/03 05:22:35;;;;;;;12.30;6.07;;;;;;;;;;778767;178;630064;-64
2022/02/03 05:24:59;;;;;;;9.93;5.43;;;;;;;;;;779112;177;816585;-64
2022/02/03 05:32:42;;;;;;;25.60;14.57;;;;;;;;;;771796;178;915440;-64
2022/02/03 05:43:05;;;;;;;24.20;11.63;;;;;;;;;;763947;180;943663;-64
2022/02/03 05:48:17;;;;;;;24.93;11.93;;;;;;;;;;758338;182;918448;-64
2022/02/03 05:50:42;;;;;;;33.23;21.90;;;;;;;;;;758725;182;918084;-65
2022/02/03 05:54:37;;;;;;;24.23;13.00;;;;;;;;;;776797;181;619213;-64
2022/02/03 06:00:53;;;;;;;27.00;17.13;;;;;;;;;;782040;180;675153;-65
2022/02/03 06:03:17;;;;;;;26.40;15.83;;;;;;;;;;777183;179;903516;-64
2022/02/03 06:05:32;;;;;;;19.83;11.80;;;;;;;;;;783137;177;868101;-65
2022/02/03 06:07:56;;;;;;;15.53;9.40;;;;;;;;;;774489;181;845456;-65
2022/02/03 06:12:57;;;;;;;21.30;7.97;;;;;;;;;;775003;180;917909;-65
2022/02/03 06:15:23;;;;;;;23.83;12.93;;;;;;;;;;774108;180;917990;-65
2022/02/03 06:17:50;;;;;;;21.87;10.50;;;;;;;;;;774117;180;918830;-65
2022/02/03 06:22:48;;;;;;;16.70;7.40;;;;;;;;;;776278;180;918775;-64
2022/02/03 06:27:50;;;;;;;16.47;9.70;;;;;;;;;;780356;178;899136;-65
2022/02/03 06:30:17;;;;;;;12.33;8.17;;;;;;;;;;763827;178;919512;-66
2022/02/03 06:32:43;;;;;;;16.23;8.93;;;;;;;;;;758328;180;832001;-66
2022/02/03 06:35:09;;;;;;;15.10;7.80;;;;;;;;;;780396;180;864387;-66
2022/02/03 06:37:35;;;;;;;21.92;7.60;;;;;;;;;;762746;182;919534;-66
2022/02/03 06:40:00;;;;;;;16.73;7.60;;;;;;;;;;772137;178;767098;-67
2022/02/03 06:42:27;;;;;;;8.83;6.00;;;;;;;;;;774959;180;919566;-66
2022/02/03 06:44:57;;;;;;;11.30;5.43;;;;;;;;;;769650;181;919370;-66
2022/02/03 06:47:28;;;;;;;19.47;7.80;;;;;;;;;;767330;180;919324;-64
2022/02/03 06:52:24;;;;;;;13.97;7.57;;;;;;;;;;770126;182;919212;-64
2022/02/03 06:55:01;;;;;;;14.10;8.43;;;;;;;;;;764541;181;919629;-64
2022/02/03 06:57:18;;;;;;;12.93;6.90;;;;;;;;;;774668;180;919246;-65
2022/02/03 06:59:46;;;;;;;16.00;6.90;;;;;;;;;;772646;180;919753;-64
2022/02/03 07:02:03;;;;;;;19.47;10.40;;;;;;;;;;772120;181;919791;-63
2022/02/03 07:04:37;;;;;;;17.40;8.40;;;;;;;;;;772010;177;919022;-65
2022/02/03 07:06:54;;;;;;;38.27;18.77;;;;;;;;;;774254;179;919022;-62
2022/02/03 07:09:20;;;;;;;16.73;9.33;;;;;;;;;;780448;180;919146;-65
2022/02/03 07:11:46;;;;;;;14.27;8.37;;;;;;;;;;772673;180;919051;-65
2022/02/03 07:14:12;;;;;;;19.53;10.60;;;;;;;;;;767520;181;919007;-65
2022/02/03 07:16:46;;;;;;;17.27;9.20;;;;;;;;;;778571;177;834809;-65
2022/02/03 07:19:03;;;;;;;26.30;10.93;;;;;;;;;;775741;181;917641;-65
2022/02/03 07:21:29;;;;;;;21.13;11.53;;;;;;;;;;773254;180;919134;-65
2022/02/03 07:23:55;;;;;;;19.70;10.60;;;;;;;;;;771213;181;920619;-63
2022/02/03 07:26:22;;;;;;;15.80;11.53;;;;;;;;;;771023;180;919276;-65
2022/02/03 07:28:47;;;;;;;22.77;10.87;;;;;;;;;;764983;181;919588;-64
2022/02/03 07:31:13;;;;;;;16.40;10.60;;;;;;;;;;770825;181;914303;-63
2022/02/03 07:33:38;;;;;;;26.83;12.10;;;;;;;;;;777498;177;1017676;-63
2022/02/03 07:36:05;;;;;;;27.03;11.60;;;;;;;;;;774318;180;917748;-63
2022/02/03 07:38:30;;;;;;;23.73;11.87;;;;;;;;;;766884;180;916135;-64
2022/02/03 07:40:56;;;;;;;22.57;13.00;;;;;;;;;;776941;178;916378;-64
2022/02/03 07:43:22;;;;;;;21.60;11.50;;;;;;;;;;773903;180;919734;-64
2022/02/03 07:45:48;;;;;;;26.47;11.00;;;;;;;;;;772046;180;913618;-65
2022/02/03 07:48:14;;;;;;;21.87;11.55;;;;;;;;;;778860;180;920896;-67
2022/02/03 07:50:40;;;;;;;23.20;11.53;;;;;;;;;;772645;180;919064;-65
2022/02/03 07:53:05;;;;;;;27.53;13.67;;;;;;;;;;773096;178;918439;-66
2022/02/03 07:55:31;;;;;;;24.77;12.07;;;;;;;;;;770059;180;1021149;-65
2022/02/03 07:57:57;;;;;;;23.00;10.83;;;;;;;;;;781517;178;918754;-64
2022/02/03 08:00:23;;;;;;;26.60;11.37;;;;;;;;;;770216;180;919441;-65
2022/02/03 08:02:49;;;;;;;23.80;9.40;;;;;;;;;;774141;180;919301;-66
2022/02/03 08:05:16;;;;;;;18.10;9.30;;;;;;;;;;779241;178;915951;-66
2022/02/03 08:07:46;;;;;;;17.33;9.83;;;;;;;;;;773470;179;918709;-65
2022/02/03 08:10:27;;;;;;;16.07;9.37;;;;;;;;;;770235;177;919510;-65
2022/02/03 08:12:38;;;;;;;14.70;9.17;;;;;;;;;;770813;179;919135;-66
2022/02/03 08:15:04;;;;;;;13.93;7.10;;;;;;;;;;781191;180;919807;-67
2022/02/03 08:17:37;;;;;;;17.57;8.17;;;;;;;;;;773625;180;919408;-68
2022/02/03 08:20:00;;;;;;;15.03;7.33;;;;;;;;;;771107;181;918846;-68
2022/02/03 08:22:28;;;;;;;9.80;6.13;;;;;;;;;;774316;181;919474;-69
2022/02/03 08:24:53;;;;;;;11.57;6.20;;;;;;;;;;774571;179;920869;-68
2022/02/03 08:27:38;;;;;;;16.83;6.20;;;;;;;;;;772458;179;942735;-70
2022/02/03 08:30:08;;;;;;;12.10;6.90;;;;;;;;;;772504;180;918514;-69
2022/02/03 08:32:18;;;;;;;14.03;6.83;;;;;;;;;;767285;180;919217;-69
2022/02/03 08:37:17;;;;;;;16.23;8.10;;;;;;;;;;770526;177;918843;-69
2022/02/03 08:39:54;;;;;;;14.70;8.10;;;;;;;;;;776883;180;918976;-68
2022/02/03 08:42:20;;;;;;;13.43;7.63;;;;;;;;;;778278;180;919711;-68
2022/02/03 08:44:46;;;;;;;13.03;8.70;;;;;;;;;;764789;182;919588;-68
2022/02/03 08:47:11;;;;;;;14.60;7.70;;;;;;;;;;760382;181;919036;-67
2022/02/03 08:49:42;;;;;;;13.90;7.67;;;;;;;;;;773730;180;919249;-67
2022/02/03 08:52:08;;;;;;;14.07;7.47;;;;;;;;;;778885;180;633432;-69
2022/02/03 08:54:33;;;;;;;15.47;7.20;;;;;;;;;;766587;180;732879;-67
2022/02/03 08:57:05;;;;;;;19.53;10.20;;;;;;;;;;779051;180;649645;-67
2022/02/03 08:59:49;;;;;;;13.10;7.93;;;;;;;;;;779488;180;912065;-67
2022/02/03 09:39:07;;;;;;;15.30;7.47;;;;;;;;;;771745;179;919540;-63
2022/02/03 09:40:54;;;;;;;11.50;6.53;;;;;;;;;;765365;180;919683;-64
2022/02/03 09:51:28;;;;;;;20.03;6.80;;;;;;;;;;777165;177;919454;-64
2022/02/03 09:53:28;;;;;;;15.10;6.77;;;;;;;;;;764716;179;919695;-64
2022/02/03 09:58:21;;;;;;;11.33;5.03;;;;;;;;;;776595;180;920015;-63
2022/02/03 10:01:06;;;;;;;12.77;4.97;;;;;;;;;;775942;179;838789;-64
2022/02/03 10:03:21;;;;;;;10.27;5.37;;;;;;;;;;770697;179;919442;-64
2022/02/03 10:05:53;;;;;;;14.03;5.70;;;;;;;;;;768563;180;899531;-64
2022/02/03 10:08:11;;;;;;;8.93;4.97;;;;;;;;;;770344;178;919490;-64
2022/02/03 10:10:37;;;;;;;10.70;5.45;;;;;;;;;;774469;180;918611;-64
2022/02/03 10:13:03;;;;;;;13.83;6.60;;;;;;;;;;773217;179;919814;-66
2022/02/03 10:15:29;;;;;;;12.33;4.43;;;;;;;;;;773367;181;915523;-64
2022/02/03 10:17:58;;;;;;;12.45;5.55;;;;;;;;;;772836;180;917203;-63
2022/02/03 10:20:22;;;;;;;18.47;6.70;;;;;;;;;;768384;180;915278;-61
2022/02/03 10:22:50;;;;;;;10.70;6.00;;;;;;;;;;775099;177;916049;-64
2022/02/03 10:25:33;;;;;;;10.30;6.20;;;;;;;;;;767959;177;917827;-64
2022/02/03 10:28:00;;;;;;;12.57;6.40;;;;;;;;;;754122;181;958370;-63
2022/02/03 10:30:27;;;;;;;8.13;6.07;;;;;;;;;;772770;177;915118;-63
2022/02/03 10:32:49;;;;;;;9.30;5.40;;;;;;;;;;775116;179;916327;-63
2022/02/03 10:35:19;;;;;;;16.80;5.53;;;;;;;;;;774836;179;1021835;-64
2022/02/03 10:37:48;;;;;;;8.37;5.30;;;;;;;;;;769053;183;1290751;-64
2022/02/03 10:40:44;;;;;;;19.13;4.97;;;;;;;;;;774467;180;919792;-67
2022/02/03 10:45:57;;;;;;;15.80;5.70;;;;;;;;;;774844;180;916581;-63
2022/02/03 10:50:54;;;;;;;9.00;4.47;;;;;;;;;;759719;184;919453;-63
2022/02/03 10:53:28;;;;;;;9.73;5.60;;;;;;;;;;771971;180;917142;-63
2022/02/03 10:55:57;;;;;;;13.53;5.93;;;;;;;;;;765630;184;917858;-63
2022/02/03 11:01:05;;;;;;;23.50;5.63;;;;;;;;;;766882;179;917070;-64
2022/02/03 11:03:31;;;;;;;16.40;5.53;;;;;;;;;;766212;179;1024106;-64
2022/02/03 11:06:06;;;;;;;9.90;4.53;;;;;;;;;;770910;180;917659;-64
2022/02/03 11:08:29;;;;;;;14.17;5.70;;;;;;;;;;775431;181;919133;-64
2022/02/03 11:10:50;;;;;;;10.73;4.10;;;;;;;;;;759415;180;910697;-64
2022/02/03 11:13:12;;;;;;;8.27;4.27;;;;;;;;;;774126;177;1022289;-65
2022/02/03 11:15:38;;;;;;;12.57;4.83;;;;;;;;;;771256;181;920358;-65
2022/02/03 11:18:05;;;;;;;10.90;5.03;;;;;;;;;;742480;184;918526;-63
2022/02/03 11:20:31;;;;;;;16.45;3.72;;;;;;;;;;749808;187;937980;-64
2022/02/03 11:31:10;;;;;;;10.23;3.83;;;;;;;;;;772899;178;917300;-64
2022/02/03 11:41:34;;;;;;;4.70;2.55;;;;;;;;;;765110;179;920077;-63
2022/02/03 11:44:08;;;;;;;6.87;3.17;;;;;;;;;;768095;180;911113;-62
2022/02/03 11:49:11;;;;;;;8.33;2.63;;;;;;;;;;767838;181;917395;-63
2022/02/03 11:52:00;;;;;;;10.33;3.60;;;;;;;;;;771659;177;913058;-62
2022/02/03 11:54:26;;;;;;;11.70;4.30;;;;;;;;;;770883;180;919139;-62
2022/02/03 11:56:53;;;;;;;7.83;2.80;;;;;;;;;;766547;179;919899;-62
2022/02/03 11:59:35;;;;;;;8.87;3.77;;;;;;;;;;771891;177;1015340;-63
2022/02/03 12:05:03;;;;;;;11.23;4.22;;;;;;;;;;774623;178;936461;-63
2022/02/03 12:07:35;;;;;;;11.63;3.60;;;;;;;;;;772630;177;919582;-62
2022/02/03 12:12:48;;;;;;;9.43;2.43;;;;;;;;;;771103;180;917766;-64
2022/02/03 12:15:20;;;;;;;7.90;4.27;;;;;;;;;;776973;180;920057;-64
2022/02/03 12:17:33;;;;;;;7.47;3.37;;;;;;;;;;774127;177;921585;-64
2022/02/03 12:19:54;;;;;;;12.80;3.20;;;;;;;;;;775740;179;920142;-64
2022/02/03 12:22:36;;;;;;;6.10;3.33;;;;;;;;;;771751;177;1020364;-62
2022/02/03 12:25:12;;;;;;;11.47;3.43;;;;;;;;;;770518;180;919492;-64
2022/02/03 12:27:47;;;;;;;10.13;3.40;;;;;;;;;;773530;180;816389;-63
2022/02/03 12:30:07;;;;;;;14.60;4.13;;;;;;;;;;766839;182;919273;-61
2022/02/03 12:33:02;;;;;;;7.60;3.53;;;;;;;;;;769665;178;918935;-64
2022/02/03 12:37:56;;;;;;;15.00;3.73;;;;;;;;;;776259;180;918548;-64
2022/02/03 12:40:03;;;;;;;9.20;2.65;;;;;;;;;;763919;180;919330;-62
2022/02/03 12:45:17;;;;;;;11.50;3.93;;;;;;;;;;764781;182;918819;-64
2022/02/03 12:47:41;;;;;;;4.23;2.57;;;;;;;;;;775997;178;625056;-63
2022/02/03 12:50:06;;;;;;;8.83;2.57;;;;;;;;;;779958;177;613792;-63
2022/02/03 12:52:31;;;;;;;13.17;2.80;;;;;;;;;;774869;177;624953;-65
2022/02/03 12:54:57;;;;;;;8.50;3.12;;;;;;;;;;758281;180;629951;-64
2022/02/03 12:57:25;;;;;;;7.73;2.87;;;;;;;;;;772880;180;629954;-63
2022/02/03 13:00:06;;;;;;;6.17;2.40;;;;;;;;;;778289;180;625883;-64
2022/02/03 13:02:32;;;;;;;7.53;2.20;;;;;;;;;;778393;179;918985;-63
2022/02/03 13:04:57;;;;;;;7.60;2.97;;;;;;;;;;773076;177;918948;-64
2022/02/03 13:07:29;;;;;;;7.50;2.10;;;;;;;;;;777865;180;1021734;-62
2022/02/03 13:09:54;;;;;;;6.60;3.63;;;;;;;;;;775036;177;919121;-63
2022/02/03 13:12:22;;;;;;;8.80;2.43;;;;;;;;;;768764;177;920260;-64
2022/02/03 13:14:47;;;;;;;8.00;3.87;;;;;;;;;;764126;177;930546;-64
2022/02/03 13:17:17;;;;;;;10.90;3.40;;;;;;;;;;778943;180;919435;-64
2022/02/03 13:19:50;;;;;;;17.00;3.27;;;;;;;;;;774204;181;918979;-63
2022/02/03 13:22:17;;;;;;;12.10;3.23;;;;;;;;;;775527;177;919485;-63
2022/02/03 13:24:51;;;;;;;9.52;3.60;;;;;;;;;;772227;179;919434;-63
2022/02/03 13:27:08;;;;;;;14.83;4.00;;;;;;;;;;765777;181;919052;-64
2022/02/03 13:29:41;;;;;;;5.10;3.20;;;;;;;;;;759439;180;919335;-63
2022/02/03 13:32:03;;;;;;;6.00;2.47;;;;;;;;;;769542;181;921566;-63
2022/02/03 13:34:37;;;;;;;9.23;3.87;;;;;;;;;;768780;181;918127;-64
2022/02/03 13:37:14;;;;;;;15.20;3.17;;;;;;;;;;768806;181;948810;-64
2022/02/03 13:39:28;;;;;;;9.23;3.12;;;;;;;;;;768250;179;915854;-63
2022/02/03 13:41:57;;;;;;;14.70;3.50;;;;;;;;;;774529;180;915661;-63
2022/02/03 13:44:23;;;;;;;7.95;2.97;;;;;;;;;;773375;180;919425;-63
2022/02/03 13:46:49;;;;;;;7.90;3.23;;;;;;;;;;772250;180;919106;-63
2022/02/03 13:49:14;;;;;;;22.30;3.97;;;;;;;;;;768653;180;922775;-63
2022/02/03 13:51:41;;;;;;;8.73;3.07;;;;;;;;;;771803;180;919950;-63
2022/02/03 13:54:18;;;;;;;11.40;3.00;;;;;;;;;;769852;180;918676;-62
2022/02/03 14:14:39;;;;;;;9.00;3.47;;;;;;;;;;768050;181;918687;-64
2022/02/03 14:17:38;;;;;;;10.30;3.80;;;;;;;;;;772959;181;915345;-64
2022/02/03 14:20:04;;;;;;;7.63;3.87;;;;;;;;;;777867;177;915934;-64
2022/02/03 14:22:02;;;;;;;10.00;3.40;;;;;;;;;;774048;180;915960;-63
2022/02/03 14:27:20;;;;;;;12.30;3.67;;;;;;;;;;775676;180;918236;-64
2022/02/03 14:29:46;;;;;;;11.80;3.43;;;;;;;;;;774424;180;919804;-63
2022/02/03 14:32:07;;;;;;;12.37;3.60;;;;;;;;;;779843;178;919902;-63
2022/02/03 14:34:34;;;;;;;9.07;3.33;;;;;;;;;;770582;182;919900;-64
2022/02/03 14:37:04;;;;;;;7.00;2.80;;;;;;;;;;766052;180;919650;-65
2022/02/03 14:39:36;;;;;;;5.27;2.93;;;;;;;;;;768077;180;918762;-64
2022/02/03 14:41:50;;;;;;;8.00;4.13;;;;;;;;;;777418;180;918407;-64
2022/02/03 14:44:17;;;;;;;8.50;4.30;;;;;;;;;;772255;178;919844;-64
2022/02/03 14:46:42;;;;;;;11.60;4.10;;;;;;;;;;773716;180;918227;-64
2022/02/03 14:49:09;;;;;;;15.20;3.90;;;;;;;;;;778099;180;919019;-63
2022/02/03 14:51:45;;;;;;;11.33;4.70;;;;;;;;;;771129;181;918685;-64
2022/02/03 14:59:13;;;;;;;13.70;4.10;;;;;;;;;;770236;180;919334;-63
2022/02/03 15:01:39;;;;;;;8.33;3.83;;;;;;;;;;767357;178;917189;-63
2022/02/03 15:04:06;;;;;;;11.73;4.03;;;;;;;;;;758790;184;918553;-63
2022/02/03 15:06:40;;;;;;;9.50;4.00;;;;;;;;;;774796;180;919343;-64
2022/02/03 15:11:54;;;;;;;9.23;3.43;;;;;;;;;;779329;181;919348;-63
2022/02/03 15:13:59;;;;;;;11.40;3.90;;;;;;;;;;768729;180;918950;-63
2022/02/03 15:16:27;;;;;;;14.15;5.20;;;;;;;;;;774534;177;918568;-63
2022/02/03 15:18:50;;;;;;;18.97;5.80;;;;;;;;;;771007;181;918578;-63
2022/02/03 15:21:17;;;;;;;13.43;4.40;;;;;;;;;;759647;181;919952;-63
2022/02/03 15:23:43;;;;;;;13.18;4.78;;;;;;;;;;776749;177;1021337;-63
2022/02/03 15:26:09;;;;;;;11.97;4.03;;;;;;;;;;779495;180;1020420;-63
2022/02/03 15:28:35;;;;;;;8.43;4.40;;;;;;;;;;776312;180;919822;-63
2022/02/03 15:31:03;;;;;;;9.23;4.53;;;;;;;;;;777251;177;920115;-64
2022/02/03 15:33:28;;;;;;;9.13;4.20;;;;;;;;;;773157;177;919034;-63
2022/02/03 15:35:58;;;;;;;18.90;6.43;;;;;;;;;;773136;180;918883;-63
2022/02/03 15:38:21;;;;;;;10.00;4.50;;;;;;;;;;775027;180;927633;-63
2022/02/03 15:40:47;;;;;;;13.07;5.13;;;;;;;;;;779067;180;616675;-64
2022/02/03 15:43:25;;;;;;;15.50;6.70;;;;;;;;;;783010;180;628016;-63
2022/02/03 15:45:41;;;;;;;22.40;7.50;;;;;;;;;;768804;177;921113;-63
2022/02/03 15:48:12;;;;;;;15.93;5.40;;;;;;;;;;766368;178;919798;-64
2022/02/03 16:01:12;;;;;;;10.02;4.62;;;;;;;;;;773109;179;916678;-64
2022/02/03 16:03:32;;;;;;;11.50;5.73;;;;;;;;;;769499;179;918683;-64
2022/02/03 16:13:47;;;;;;;16.77;5.83;;;;;;;;;;771273;178;1021136;-65
2022/02/03 16:16:48;;;;;;;11.13;5.20;;;;;;;;;;770181;178;919713;-64
2022/02/03 16:18:38;;;;;;;10.50;5.70;;;;;;;;;;768170;180;993689;-65
2022/02/03 16:21:16;;;;;;;14.37;5.70;;;;;;;;;;772460;177;918036;-65
2022/02/03 16:23:57;;;;;;;14.43;6.30;;;;;;;;;;763459;178;918397;-65
2022/02/03 16:26:37;;;;;;;12.83;6.17;;;;;;;;;;766985;179;918854;-63
2022/02/03 16:41:21;;;;;;;18.00;6.40;;;;;;;;;;771045;180;1022665;-65
2022/02/03 16:50:20;;;;;;;15.07;7.30;;;;;;;;;;772666;180;981437;-64
2022/02/03 16:51:24;;;;;;;15.17;6.27;;;;;;;;;;760384;181;918899;-63
2022/02/03 16:53:37;;;;;;;10.18;6.30;;;;;;;;;;776235;180;918277;-63
2022/02/03 16:56:08;;;;;;;14.13;4.67;;;;;;;;;;770798;180;920209;-64
2022/02/03 16:58:33;;;;;;;8.80;4.60;;;;;;;;;;771364;179;918928;-64
2022/02/03 17:00:59;;;;;;;12.67;5.77;;;;;;;;;;773784;180;918667;-64
2022/02/03 17:03:21;;;;;;;10.47;5.67;;;;;;;;;;777399;180;919117;-64
2022/02/03 17:05:47;;;;;;;12.50;5.37;;;;;;;;;;773312;177;918310;-63
2022/02/03 17:08:13;;;;;;;8.60;5.20;;;;;;;;;;771374;180;918494;-64
2022/02/03 17:10:39;;;;;;;8.93;4.47;;;;;;;;;;773897;180;920086;-63
2022/02/03 17:13:05;;;;;;;10.70;5.30;;;;;;;;;;774182;180;918675;-64
2022/02/03 17:15:31;;;;;;;11.63;5.90;;;;;;;;;;765867;180;919276;-64
2022/02/03 17:17:57;;;;;;;12.20;5.32;;;;;;;;;;767302;181;918567;-64
2022/02/03 17:20:25;;;;;;;10.40;4.37;;;;;;;;;;771826;180;930693;-64
2022/02/03 17:22:51;;;;;;;11.17;4.90;;;;;;;;;;759441;181;919137;-64
2022/02/03 17:25:30;;;;;;;12.80;4.93;;;;;;;;;;767280;181;915898;-63
2022/02/03 17:27:58;;;;;;;14.97;5.40;;;;;;;;;;772940;180;916032;-65
2022/02/03 17:30:22;;;;;;;7.87;4.80;;;;;;;;;;771922;179;913898;-65
2022/02/03 17:53:59;;;;;;;11.00;4.07;;;;;;;;;;777708;180;918630;-63
2022/02/03 18:03:38;;;;;;;13.48;4.90;;;;;;;;;;773981;179;919366;-65
2022/02/03 18:08:50;;;;;;;13.73;4.80;;;;;;;;;;774527;180;916469;-64
2022/02/03 18:11:46;;;;;;;13.90;5.00;;;;;;;;;;756855;180;1731119;-65
2022/02/03 18:27:06;;;;;;;11.67;6.13;;;;;;;;;;774246;178;910805;-64
2022/02/03 18:29:46;;;;;;;15.40;6.03;;;;;;;;;;768104;178;972857;-64
2022/02/03 18:31:41;;;;;;;11.77;5.40;;;;;;;;;;776421;178;627861;-65
2022/02/03 18:36:45;;;;;;;13.63;6.00;;;;;;;;;;766719;181;918860;-64
2022/02/03 18:51:43;;;;;;;12.57;5.75;;;;;;;;;;773161;178;1006075;-64
2022/02/03 18:54:17;;;;;;;13.93;6.57;;;;;;;;;;771954;180;919935;-65
2022/02/03 18:56:40;;;;;;;18.13;7.23;;;;;;;;;;773267;178;919310;-65
2022/02/03 18:59:19;;;;;;;12.25;7.55;;;;;;;;;;781941;180;645283;-62
2022/02/03 19:14:39;;;;;;;12.70;6.60;;;;;;;;;;779916;180;918933;-64
2022/02/03 19:23:33;;;;;;;12.40;5.60;;;;;;;;;;772645;178;919284;-64
2022/02/03 19:25:06;;;;;;;17.10;6.40;;;;;;;;;;773938;178;918328;-64
2022/02/03 19:27:24;;;;;;;10.60;5.90;;;;;;;;;;773153;178;918709;-65
2022/02/03 20:01:17;;;;;;;14.27;5.17;;;;;;;;;;770263;180;915843;-65
2022/02/03 20:03:36;;;;;;;7.30;4.07;;;;;;;;;;761187;180;915079;-66
2022/02/03 20:05:55;;;;;;;7.47;3.90;;;;;;;;;;775548;178;920290;-64
2022/02/03 20:08:23;;;;;;;8.00;3.20;;;;;;;;;;776465;179;917639;-65
2022/02/03 20:10:45;;;;;;;11.10;4.20;;;;;;;;;;775840;178;918437;-65
2022/02/03 20:13:07;;;;;;;10.07;3.17;;;;;;;;;;772815;179;919344;-65
2022/02/03 20:15:37;;;;;;;10.63;3.80;;;;;;;;;;778837;180;918870;-65
2022/02/03 20:17:58;;;;;;;6.75;3.65;;;;;;;;;;773425;178;919197;-64
2022/02/03 20:20:24;;;;;;;6.60;3.23;;;;;;;;;;773931;178;919863;-64
2022/02/03 20:22:51;;;;;;;13.30;3.97;;;;;;;;;;774985;180;919261;-63
2022/02/03 20:25:17;;;;;;;14.00;3.47;;;;;;;;;;780317;180;920122;-65
2022/02/03 20:27:43;;;;;;;6.47;3.47;;;;;;;;;;771990;178;919369;-65
2022/02/03 20:30:09;;;;;;;15.40;4.10;;;;;;;;;;771698;178;918582;-65
2022/02/03 20:32:36;;;;;;;6.73;3.40;;;;;;;;;;777015;181;923816;-65
2022/02/03 20:35:01;;;;;;;7.37;3.40;;;;;;;;;;772775;180;920476;-65
2022/02/03 20:37:27;;;;;;;4.70;2.60;;;;;;;;;;771613;180;919267;-66
2022/02/03 20:39:53;;;;;;;7.20;4.15;;;;;;;;;;762635;181;926405;-65
2022/02/03 20:42:18;;;;;;;5.50;3.57;;;;;;;;;;771465;180;919348;-66
2022/02/03 20:44:44;;;;;;;8.27;4.15;;;;;;;;;;771035;179;1018726;-65
2022/02/03 20:47:10;;;;;;;16.17;3.80;;;;;;;;;;771579;180;919740;-64
2022/02/03 20:49:37;;;;;;;6.33;3.03;;;;;;;;;;773555;176;919792;-65
2022/02/03 20:52:03;;;;;;;10.97;3.87;;;;;;;;;;769658;177;919347;-65
2022/02/03 20:54:30;;;;;;;6.60;3.37;;;;;;;;;;760459;181;919735;-65
2022/02/03 20:56:57;;;;;;;8.57;3.60;;;;;;;;;;777483;180;918496;-65
2022/02/03 20:59:27;;;;;;;9.07;3.95;;;;;;;;;;772067;177;921173;-65
2022/02/03 21:01:51;;;;;;;6.10;3.03;;;;;;;;;;770169;181;917563;-63
2022/02/03 21:04:27;;;;;;;10.87;2.87;;;;;;;;;;777696;179;919348;-65
2022/02/03 21:06:39;;;;;;;7.35;4.55;;;;;;;;;;770445;179;916208;-64
2022/02/03 21:09:07;;;;;;;12.93;5.40;;;;;;;;;;772286;181;916328;-65
2022/02/03 21:11:31;;;;;;;10.45;4.72;;;;;;;;;;773217;177;919596;-63
2022/02/03 21:13:57;;;;;;;12.17;4.60;;;;;;;;;;766239;181;919128;-65
2022/02/03 21:16:23;;;;;;;7.23;4.10;;;;;;;;;;768225;181;919124;-65
2022/02/03 21:18:49;;;;;;;9.10;3.87;;;;;;;;;;773838;178;919332;-64
2022/02/03 21:21:14;;;;;;;9.57;4.20;;;;;;;;;;781477;178;918557;-65
2022/02/03 21:23:40;;;;;;;7.23;4.30;;;;;;;;;;775814;178;918642;-63
2022/02/03 21:26:14;;;;;;;12.47;5.47;;;;;;;;;;774148;179;925157;-65
2022/02/03 21:28:34;;;;;;;12.70;4.10;;;;;;;;;;773420;180;921279;-65
2022/02/03 21:30:58;;;;;;;9.37;4.30;;;;;;;;;;763170;179;920731;-65
2022/02/03 21:33:28;;;;;;;9.55;4.60;;;;;;;;;;765611;180;918799;-63
2022/02/03 21:35:51;;;;;;;7.97;4.90;;;;;;;;;;777134;178;918912;-63
2022/02/03 21:38:17;;;;;;;11.83;6.00;;;;;;;;;;769172;181;919526;-64
2022/02/03 21:40:43;;;;;;;19.13;7.40;;;;;;;;;;766840;181;918667;-63